createdAt,value
2023-09-06T00:02:14.005Z,67.07
2023-09-06T00:05:18.734Z,67.50
2023-09-06T00:08:21.280Z,67.64
2023-09-06T00:11:23.650Z,68.22
2023-09-06T00:14:30.969Z,68.48
2023-09-06T00:17:34.328Z,69.58
2023-09-06T00:20:42.386Z,69.65
2023-09-06T00:23:44.542Z,69.35
2023-09-06T00:26:46.596Z,69.18
2023-09-06T00:29:52.865Z,69.20
2023-09-06T00:32:55.696Z,69.20
2023-09-06T00:35:59.363Z,69.79
2023-09-06T00:39:04.789Z,70.13
2023-09-06T00:42:08.434Z,70.19
2023-09-06T00:45:10.784Z,70.44
2023-09-06T00:48:21.154Z,70.44
2023-09-06T00:51:24.559Z,70.43
2023-09-06T00:54:26.611Z,69.96
2023-09-06T00:57:30.947Z,69.70
2023-09-06T01:00:34.925Z,71.08
2023-09-06T01:03:37.136Z,70.89
2023-09-06T01:06:41.111Z,71.40
2023-09-06T01:09:44.355Z,70.53
2023-09-06T01:12:46.655Z,71.88
2023-09-06T01:15:52.513Z,72.38
2023-09-06T01:18:55.026Z,72.22
2023-09-06T01:22:27.598Z,72.26
2023-09-06T01:25:30.236Z,72.16
2023-09-06T01:28:33.601Z,72.52
2023-09-06T01:31:36.268Z,72.27
2023-09-06T01:34:38.982Z,71.10
2023-09-06T01:37:41.397Z,72.40
2023-09-06T01:40:44.785Z,72.55
2023-09-06T01:43:47.090Z,72.36
2023-09-06T01:46:49.368Z,71.93
2023-09-06T01:49:51.860Z,72.11
2023-09-06T01:52:57.165Z,71.87
2023-09-06T01:55:59.891Z,72.19
2023-09-06T01:59:02.309Z,72.15
2023-09-06T02:02:06.277Z,72.32
2023-09-06T02:05:08.822Z,72.23
2023-09-06T02:08:12.196Z,72.17
2023-09-06T02:11:14.564Z,72.22
2023-09-06T02:14:17.014Z,72.46
2023-09-06T02:17:21.950Z,72.62
2023-09-06T02:20:26.049Z,72.24
2023-09-06T02:23:29.627Z,72.52
2023-09-06T02:26:31.976Z,72.38
2023-09-06T02:29:34.197Z,72.32
2023-09-06T02:32:42.498Z,72.36
2023-09-06T02:35:47.213Z,72.27
2023-09-06T02:38:49.604Z,72.38
2023-09-06T02:41:51.858Z,71.88
2023-09-06T02:44:55.449Z,71.93
2023-09-06T02:47:57.947Z,71.87
2023-09-06T02:51:03.879Z,71.95
2023-09-06T02:54:10.300Z,71.77
2023-09-06T02:57:15.544Z,71.95
2023-09-06T03:00:30.677Z,72.00
2023-09-06T03:03:33.878Z,71.74
2023-09-06T03:06:39.459Z,72.47
2023-09-06T03:09:46.506Z,72.89
2023-09-06T03:12:55.642Z,72.95
2023-09-06T03:16:01.132Z,72.83
2023-09-06T03:19:04.001Z,72.94
2023-09-06T03:22:12.792Z,72.57
2023-09-06T03:25:19.167Z,72.33
2023-09-06T03:28:22.810Z,72.62
2023-09-06T03:31:27.472Z,72.23
2023-09-06T03:34:32.271Z,72.40
2023-09-06T03:37:36.674Z,72.37
2023-09-06T03:40:38.940Z,72.27
2023-09-06T03:43:41.134Z,72.84
2023-09-06T03:46:43.721Z,73.16
2023-09-06T03:49:46.915Z,73.42
2023-09-06T03:52:49.433Z,73.10
2023-09-06T03:55:51.803Z,72.96
2023-09-06T03:58:55.188Z,72.93
2023-09-06T04:01:57.784Z,72.82
2023-09-06T04:05:00.276Z,73.00
2023-09-06T04:08:08.453Z,73.27
2023-09-06T04:11:12.584Z,73.09
2023-09-06T04:14:17.761Z,73.24
2023-09-06T04:17:24.423Z,73.10
2023-09-06T04:20:36.688Z,73.35
2023-09-06T04:23:41.627Z,73.20
2023-09-06T04:26:52.125Z,73.15
2023-09-06T04:29:54.418Z,73.06
2023-09-06T04:32:59.279Z,72.94
2023-09-06T04:36:04.863Z,72.74
2023-09-06T04:39:09.245Z,72.70
2023-09-06T04:42:15.178Z,72.67
2023-09-06T04:45:18.457Z,72.64
2023-09-06T04:48:25.206Z,72.65
2023-09-06T04:51:28.802Z,72.47
2023-09-06T04:54:31.470Z,72.17
2023-09-06T04:57:34.313Z,72.34
2023-09-06T05:00:40.480Z,71.99
2023-09-06T05:03:42.905Z,72.01
2023-09-06T05:06:46.284Z,71.72
2023-09-06T05:09:49.075Z,72.04
2023-09-06T05:12:53.284Z,71.41
2023-09-06T05:16:01.881Z,71.49
2023-09-06T05:19:07.144Z,71.19
2023-09-06T05:22:10.361Z,71.10
2023-09-06T05:25:15.816Z,70.86
2023-09-06T05:28:18.560Z,70.57
2023-09-06T05:31:20.615Z,70.01
2023-09-06T05:34:22.931Z,69.71
2023-09-06T05:37:26.149Z,69.42
2023-09-06T05:40:34.002Z,69.17
2023-09-06T05:43:36.321Z,69.23
2023-09-06T05:46:50.946Z,68.32
2023-09-06T05:49:57.512Z,67.83
2023-09-06T05:53:01.252Z,67.60
2023-09-06T05:56:06.506Z,67.19
2023-09-06T05:59:10.452Z,67.05
2023-09-06T06:02:13.766Z,66.95
2023-09-06T06:05:16.464Z,66.63
2023-09-06T06:08:25.023Z,66.37
2023-09-06T06:11:37.319Z,66.17
2023-09-06T06:14:42.370Z,65.72
2023-09-06T06:17:47.500Z,64.90
2023-09-06T06:21:11.126Z,64.77
2023-09-06T06:24:14.690Z,64.20
2023-09-06T06:27:17.126Z,64.10
2023-09-06T06:30:29.638Z,59.16
2023-09-06T06:33:40.068Z,51.88
2023-09-06T06:36:47.124Z,51.43
2023-09-06T06:39:50.696Z,49.59
2023-09-06T06:42:56.150Z,55.48
2023-09-06T06:46:02.617Z,56.37
2023-09-06T06:49:09.475Z,58.28
2023-09-06T06:52:16.560Z,58.05
2023-09-06T06:55:20.732Z,58.10
2023-09-06T06:58:23.594Z,57.06
2023-09-06T07:02:24.024Z,57.06
2023-09-06T07:09:12.317Z,46.47
2023-09-06T07:12:27.662Z,44.22
2023-09-06T07:16:17.647Z,45.59
2023-09-06T07:19:23.013Z,49.94
2023-09-06T07:22:31.740Z,51.76
2023-09-06T07:25:40.973Z,52.76
2023-09-06T07:29:03.241Z,53.24
2023-09-06T07:32:23.320Z,54.03
2023-09-06T07:36:06.445Z,54.36
2023-09-06T07:39:15.025Z,54.17
2023-09-06T07:42:20.008Z,54.38
2023-09-06T07:45:22.863Z,54.33
2023-09-06T07:48:32.538Z,53.98
2023-09-06T07:51:58.812Z,53.50
2023-09-06T07:55:03.100Z,53.85
2023-09-06T07:58:23.781Z,53.92
2023-09-06T08:01:27.960Z,53.63
2023-09-06T08:04:38.707Z,53.28
2023-09-06T08:07:47.681Z,53.38
2023-09-06T08:10:54.228Z,52.83
2023-09-06T08:13:57.924Z,52.92
2023-09-06T08:17:21.056Z,53.38
2023-09-06T08:20:27.112Z,53.31
2023-09-06T08:23:58.489Z,53.08
2023-09-06T08:27:27.914Z,52.89
2023-09-06T08:30:32.973Z,52.97
2023-09-06T08:34:03.876Z,52.71
2023-09-06T08:37:31.563Z,52.95
2023-09-06T08:40:48.205Z,52.72
2023-09-06T08:44:07.644Z,52.24
2023-09-06T08:47:21.789Z,52.08
2023-09-06T08:50:27.320Z,51.47
2023-09-06T08:53:36.510Z,51.42
2023-09-06T08:56:43.302Z,51.41
2023-09-06T08:59:52.695Z,49.86
2023-09-06T09:03:17.964Z,49.04
2023-09-06T09:06:25.528Z,49.59
2023-09-06T09:09:31.538Z,49.21
2023-09-06T09:12:49.815Z,49.57
2023-09-06T09:15:56.924Z,48.99
2023-09-06T09:22:38.220Z,47.59
2023-09-06T09:26:02.013Z,47.44
2023-09-06T09:29:15.711Z,47.27
2023-09-06T09:32:35.598Z,47.58
2023-09-06T09:36:03.954Z,46.33
2023-09-06T09:39:19.536Z,46.19
2023-09-06T09:42:28.184Z,45.51
2023-09-06T09:45:43.491Z,45.90
2023-09-06T09:48:56.225Z,45.87
2023-09-06T09:51:59.561Z,45.38
2023-09-06T09:55:10.848Z,45.26
2023-09-06T09:58:19.483Z,44.80
2023-09-06T10:01:54.557Z,45.15
2023-09-06T10:05:13.846Z,45.56
2023-09-06T10:17:14.276Z,43.52
2023-09-06T10:21:24.226Z,43.36
2023-09-06T10:25:17.176Z,41.39
2023-09-06T10:29:24.335Z,40.90
2023-09-06T10:38:06.953Z,38.65
2023-09-06T10:42:28.606Z,38.21
2023-09-06T10:45:42.039Z,38.29
2023-09-06T10:49:30.173Z,38.33
2023-09-06T10:56:39.220Z,38.54
2023-09-06T11:00:15.126Z,37.82
2023-09-06T11:04:18.453Z,37.51
2023-09-06T11:07:48.642Z,37.22
2023-09-06T11:11:12.013Z,37.76
2023-09-06T11:15:35.653Z,37.56
2023-09-06T11:19:42.864Z,36.31
2023-09-06T11:23:23.896Z,35.83
2023-09-06T11:26:48.892Z,36.35
2023-09-06T11:30:38.416Z,36.07
2023-09-06T11:33:44.475Z,36.01
2023-09-06T11:36:48.152Z,35.40
2023-09-06T11:39:53.203Z,35.61
2023-09-06T11:44:19.438Z,36.56
2023-09-06T11:48:33.455Z,36.68
2023-09-06T11:52:24.856Z,35.87
2023-09-06T11:55:53.656Z,35.02
2023-09-06T11:58:59.910Z,35.53
2023-09-06T12:02:29.724Z,34.55
2023-09-06T12:06:32.152Z,34.99
2023-09-06T12:09:46.460Z,35.02
2023-09-06T12:13:13.475Z,35.44
2023-09-06T12:16:55.390Z,34.25
2023-09-06T12:20:34.289Z,34.85
2023-09-06T12:24:18.336Z,34.78
2023-09-06T12:27:23.138Z,34.62
2023-09-06T12:30:26.533Z,34.78
2023-09-06T12:33:31.663Z,34.98
2023-09-06T12:36:34.304Z,33.54
2023-09-06T12:39:41.074Z,34.29
2023-09-06T12:42:49.398Z,33.46
2023-09-06T12:46:00.799Z,33.56
2023-09-06T12:49:09.559Z,33.59
2023-09-06T12:52:21.423Z,33.93
2023-09-06T12:55:42.416Z,33.91
2023-09-06T12:58:49.286Z,33.42
2023-09-06T13:01:55.368Z,33.39
2023-09-06T13:05:00.409Z,32.63
2023-09-06T13:08:17.423Z,33.37
2023-09-06T13:11:30.340Z,33.16
2023-09-06T13:14:39.422Z,33.17
2023-09-06T13:17:45.262Z,33.11
2023-09-06T13:21:03.942Z,32.99
2023-09-06T13:24:07.809Z,33.79
2023-09-06T13:27:11.619Z,33.80
2023-09-06T13:30:17.245Z,33.82
2023-09-06T13:33:21.469Z,33.69
2023-09-06T13:36:30.450Z,33.94
2023-09-06T13:39:35.885Z,33.74
2023-09-06T13:42:38.546Z,32.79
2023-09-06T13:45:44.500Z,33.26
2023-09-06T13:48:47.115Z,33.04
2023-09-06T13:51:50.018Z,33.77
2023-09-06T13:54:58.436Z,33.59
2023-09-06T13:58:02.784Z,32.62
2023-09-06T14:01:06.943Z,32.68
2023-09-06T14:04:09.433Z,32.88
2023-09-06T14:07:17.373Z,32.36
2023-09-06T14:10:19.637Z,32.22
2023-09-06T14:13:28.522Z,32.13
2023-09-06T14:16:50.926Z,31.08
2023-09-06T14:19:55.514Z,31.33
2023-09-06T14:23:00.153Z,31.91
2023-09-06T14:26:03.493Z,31.52
2023-09-06T14:29:06.401Z,31.49
2023-09-06T14:32:09.248Z,32.32
2023-09-06T14:35:20.939Z,32.50
2023-09-06T14:38:27.187Z,32.88
2023-09-06T14:41:33.258Z,33.32
2023-09-06T14:44:45.686Z,32.27
2023-09-06T14:47:49.064Z,32.24
2023-09-06T14:50:59.856Z,31.22
2023-09-06T14:54:02.905Z,31.42
2023-09-06T14:57:08.123Z,32.38
2023-09-06T15:00:11.250Z,32.88
2023-09-06T15:03:20.780Z,33.14
2023-09-06T15:06:31.080Z,33.19
2023-09-06T15:09:42.213Z,33.36
2023-09-06T15:12:47.000Z,33.45
2023-09-06T15:15:51.568Z,32.89
2023-09-06T15:18:58.895Z,32.71
2023-09-06T15:22:02.984Z,32.55
2023-09-06T15:25:14.925Z,33.56
2023-09-06T15:28:20.358Z,34.11
2023-09-06T15:31:33.577Z,34.89
2023-09-06T15:34:37.724Z,34.22
2023-09-06T15:38:13.115Z,33.43
2023-09-06T15:41:33.900Z,34.14
2023-09-06T15:44:39.828Z,34.58
2023-09-06T15:47:46.952Z,34.79
2023-09-06T15:50:53.790Z,34.54
2023-09-06T15:54:10.969Z,35.10
2023-09-06T15:57:13.643Z,35.02
2023-09-06T16:00:32.928Z,35.07
2023-09-06T16:03:38.710Z,35.40
2023-09-06T16:06:47.430Z,35.22
2023-09-06T16:09:50.424Z,34.88
2023-09-06T16:13:02.125Z,34.83
2023-09-06T16:16:05.206Z,35.17
2023-09-06T16:19:07.718Z,34.99
2023-09-06T16:22:15.703Z,35.22
2023-09-06T16:25:21.957Z,35.45
2023-09-06T16:28:26.761Z,35.88
2023-09-06T16:31:32.049Z,36.06
2023-09-06T16:34:37.922Z,36.20
2023-09-06T16:37:40.928Z,36.46
2023-09-06T16:40:43.570Z,36.19
2023-09-06T16:43:46.240Z,36.70
2023-09-06T16:47:14.622Z,36.50
2023-09-06T16:50:19.910Z,37.07
2023-09-06T16:53:23.981Z,36.90
2023-09-06T16:56:26.870Z,37.00
2023-09-06T16:59:28.999Z,37.05
2023-09-06T17:02:33.202Z,37.19
2023-09-06T17:05:36.010Z,37.39
2023-09-06T17:08:40.311Z,37.68
2023-09-06T17:11:44.777Z,37.92
2023-09-06T17:14:47.695Z,38.38
2023-09-06T17:17:51.574Z,38.59
2023-09-06T17:20:54.257Z,39.12
2023-09-06T17:24:03.776Z,39.49
2023-09-06T17:27:09.811Z,39.58
2023-09-06T17:30:22.169Z,40.53
2023-09-06T17:33:26.638Z,40.67
2023-09-06T17:36:37.608Z,40.99
2023-09-06T17:39:42.466Z,41.27
2023-09-06T17:42:48.830Z,41.81
2023-09-06T17:45:52.757Z,42.42
2023-09-06T17:48:56.361Z,42.46
2023-09-06T17:52:01.224Z,42.79
2023-09-06T17:55:07.792Z,43.75
2023-09-06T17:58:27.820Z,44.58
2023-09-06T18:01:36.633Z,43.66
2023-09-06T18:04:41.472Z,43.49
2023-09-06T18:07:47.404Z,43.70
2023-09-06T18:10:49.621Z,44.77
2023-09-06T18:13:53.013Z,45.49
2023-09-06T18:16:59.807Z,45.03
2023-09-06T18:20:02.255Z,45.25
2023-09-06T18:23:07.929Z,45.46
2023-09-06T18:26:11.781Z,44.98
2023-09-06T18:29:14.044Z,45.30
2023-09-06T18:32:18.855Z,45.60
2023-09-06T18:35:20.993Z,47.25
2023-09-06T18:38:24.435Z,47.97
2023-09-06T18:41:27.176Z,46.35
2023-09-06T18:44:32.706Z,46.67
2023-09-06T18:47:35.029Z,46.60
2023-09-06T18:50:40.973Z,46.60
2023-09-06T18:53:43.229Z,47.75
2023-09-06T18:56:46.162Z,48.54
2023-09-06T18:59:48.758Z,48.36
2023-09-06T19:02:52.511Z,48.88
2023-09-06T19:05:55.023Z,48.73
2023-09-06T19:08:58.098Z,49.91
2023-09-06T19:12:01.605Z,49.03
2023-09-06T19:15:06.506Z,48.93
2023-09-06T19:18:08.894Z,48.89
2023-09-06T19:21:11.160Z,48.94
2023-09-06T19:24:18.388Z,49.26
2023-09-06T19:27:23.317Z,49.36
2023-09-06T19:30:27.154Z,49.58
2023-09-06T19:33:29.638Z,49.75
2023-09-06T19:36:37.708Z,49.90
2023-09-06T19:39:40.369Z,50.14
2023-09-06T19:42:45.345Z,50.56
2023-09-06T19:45:58.376Z,50.39
2023-09-06T19:49:06.650Z,50.45
2023-09-06T19:52:12.573Z,50.84
2023-09-06T19:55:27.831Z,51.29
2023-09-06T19:58:33.423Z,50.54
2023-09-06T20:01:37.453Z,50.86
2023-09-06T20:04:42.718Z,51.05
2023-09-06T20:07:46.679Z,51.68
2023-09-06T20:10:51.398Z,50.81
2023-09-06T20:13:59.827Z,51.44
2023-09-06T20:17:02.816Z,49.51
2023-09-06T20:20:05.714Z,48.23
2023-09-06T20:23:08.292Z,49.14
2023-09-06T20:26:13.082Z,49.84
2023-09-06T20:29:17.436Z,49.57
2023-09-06T20:32:20.649Z,50.03
2023-09-06T20:35:23.243Z,51.18
2023-09-06T20:38:25.736Z,50.96
2023-09-06T20:41:28.069Z,50.88
2023-09-06T20:44:32.688Z,51.44
2023-09-06T20:47:35.251Z,52.10
2023-09-06T20:50:40.764Z,51.59
2023-09-06T20:53:44.869Z,51.85
2023-09-06T20:56:48.751Z,51.70
2023-09-06T20:59:51.561Z,51.70
2023-09-06T21:02:54.320Z,51.48
2023-09-06T21:06:00.737Z,52.14
2023-09-06T21:09:03.062Z,52.36
2023-09-06T21:12:05.619Z,52.90
2023-09-06T21:15:09.661Z,53.61
2023-09-06T21:18:17.155Z,54.12
2023-09-06T21:21:19.969Z,54.18
2023-09-06T21:24:23.900Z,52.42
2023-09-06T21:27:28.745Z,51.90
2023-09-06T21:30:32.302Z,51.84
2023-09-06T21:33:36.762Z,52.15
2023-09-06T21:36:39.122Z,52.23
2023-09-06T21:39:44.101Z,52.52
2023-09-06T21:42:59.884Z,52.90
2023-09-06T21:46:11.422Z,52.46
2023-09-06T21:49:14.182Z,52.63
2023-09-06T21:52:16.407Z,52.55
2023-09-06T21:55:19.009Z,53.06
2023-09-06T21:58:21.575Z,53.14
2023-09-06T22:01:25.559Z,53.07
2023-09-06T22:04:27.896Z,53.35
2023-09-06T22:07:32.382Z,53.52
2023-09-06T22:10:35.654Z,53.66
2023-09-06T22:13:38.070Z,54.60
2023-09-06T22:16:41.870Z,54.84
2023-09-06T22:19:44.240Z,54.70
2023-09-06T22:22:49.159Z,54.11
2023-09-06T22:26:01.029Z,54.52
2023-09-06T22:29:04.242Z,55.64
2023-09-06T22:32:06.524Z,54.25
2023-09-06T22:35:09.886Z,54.43
2023-09-06T22:38:11.931Z,54.53
2023-09-06T22:41:19.553Z,54.60
2023-09-06T22:44:41.990Z,55.01
2023-09-06T22:47:47.896Z,56.42
2023-09-06T22:50:52.955Z,56.81
2023-09-06T22:54:01.457Z,56.58
2023-09-06T22:57:05.640Z,56.24
2023-09-06T23:00:10.254Z,55.84
2023-09-06T23:03:17.589Z,56.60
2023-09-06T23:06:23.878Z,57.84
2023-09-06T23:09:29.222Z,58.14
2023-09-06T23:12:50.192Z,58.77
2023-09-06T23:15:54.223Z,58.78
2023-09-06T23:18:58.211Z,58.94
2023-09-06T23:22:01.894Z,58.86
2023-09-06T23:25:11.638Z,59.12
2023-09-06T23:28:22.245Z,59.37
2023-09-06T23:31:28.743Z,59.81
2023-09-06T23:34:37.405Z,60.08
2023-09-06T23:37:44.354Z,60.17
2023-09-06T23:40:46.762Z,60.44
2023-09-06T23:43:49.112Z,60.87
2023-09-06T23:46:51.589Z,60.97
2023-09-06T23:49:58.559Z,60.94
2023-09-06T23:53:02.229Z,61.27
2023-09-06T23:56:07.205Z,61.51
2023-09-06T23:59:09.462Z,61.71
